createdAt,value
2019-01-26T00:01:56.146Z,5.23
2019-01-26T00:04:23.339Z,4.97
2019-01-26T00:06:50.597Z,4.53
2019-01-26T00:09:17.763Z,4.33
2019-01-26T00:11:44.971Z,4.50
2019-01-26T00:14:12.165Z,5.20
2019-01-26T00:16:39.450Z,5.10
2019-01-26T00:19:06.639Z,4.93
2019-01-26T00:21:34.006Z,4.90
2019-01-26T00:24:01.203Z,5.23
2019-01-26T00:26:28.374Z,4.60
2019-01-26T00:28:55.598Z,4.80
2019-01-26T00:31:22.802Z,3.93
2019-01-26T00:33:50.018Z,4.07
2019-01-26T00:36:17.230Z,5.03
2019-01-26T00:38:44.465Z,4.80
2019-01-26T00:41:11.683Z,4.53
2019-01-26T00:43:38.895Z,5.30
2019-01-26T00:46:06.069Z,5.10
2019-01-26T00:48:33.266Z,4.53
2019-01-26T00:51:00.446Z,5.50
2019-01-26T00:53:27.662Z,4.97
2019-01-26T00:55:54.854Z,4.93
2019-01-26T00:58:23.646Z,4.50
2019-01-26T01:00:51.206Z,4.20
2019-01-26T01:03:18.387Z,4.50
2019-01-26T01:05:45.626Z,4.40
2019-01-26T01:08:12.802Z,4.07
2019-01-26T01:10:40.013Z,4.43
2019-01-26T01:13:07.220Z,3.87
2019-01-26T01:15:34.484Z,4.63
2019-01-26T01:18:01.664Z,4.93
2019-01-26T01:20:28.819Z,4.60
2019-01-26T01:22:55.991Z,3.20
2019-01-26T01:25:23.210Z,4.30
2019-01-26T01:27:50.419Z,4.07
2019-01-26T01:30:18.897Z,4.40
2019-01-26T01:32:46.210Z,4.17
2019-01-26T01:35:13.907Z,4.30
2019-01-26T01:37:41.087Z,3.43
2019-01-26T01:40:08.318Z,4.13
2019-01-26T01:42:35.525Z,4.50
2019-01-26T01:45:03.114Z,4.10
2019-01-26T01:47:30.275Z,4.40
2019-01-26T01:49:57.490Z,3.70
2019-01-26T01:52:24.713Z,3.63
2019-01-26T01:54:51.935Z,4.17
2019-01-26T01:57:19.122Z,4.33
2019-01-26T01:59:46.304Z,3.97
2019-01-26T02:02:13.501Z,3.90
2019-01-26T02:04:40.695Z,4.50
2019-01-26T02:07:07.960Z,4.40
2019-01-26T02:09:35.174Z,3.80
2019-01-26T02:12:02.367Z,4.13
2019-01-26T02:14:29.541Z,4.03
2019-01-26T02:16:56.771Z,4.20
2019-01-26T02:19:23.936Z,3.90
2019-01-26T02:21:51.254Z,3.50
2019-01-26T02:24:18.462Z,3.80
2019-01-26T02:26:45.670Z,3.90
2019-01-26T02:29:12.867Z,3.73
2019-01-26T02:31:40.090Z,3.93
2019-01-26T02:34:07.260Z,3.73
2019-01-26T02:36:34.488Z,4.00
2019-01-26T02:39:01.727Z,4.20
2019-01-26T02:41:28.945Z,3.70
2019-01-26T02:43:56.158Z,3.80
2019-01-26T02:46:23.334Z,3.80
2019-01-26T02:48:50.743Z,3.67
2019-01-26T02:51:17.903Z,3.53
2019-01-26T02:53:45.120Z,4.00
2019-01-26T02:56:12.348Z,4.10
2019-01-26T02:58:39.557Z,3.77
2019-01-26T03:01:06.787Z,3.37
2019-01-26T03:03:34.264Z,4.23
2019-01-26T03:06:01.598Z,3.40
2019-01-26T03:08:28.803Z,3.87
2019-01-26T03:10:56.108Z,3.40
2019-01-26T03:13:23.252Z,3.70
2019-01-26T03:15:50.494Z,4.40
2019-01-26T03:18:17.703Z,3.63
2019-01-26T03:20:44.947Z,4.13
2019-01-26T03:23:12.159Z,3.60
2019-01-26T03:25:39.368Z,3.50
2019-01-26T03:28:06.587Z,3.23
2019-01-26T03:30:33.772Z,3.20
2019-01-26T03:33:01.007Z,3.40
2019-01-26T03:35:28.254Z,3.70
2019-01-26T03:37:55.400Z,3.47
2019-01-26T03:40:22.668Z,3.43
2019-01-26T03:42:49.885Z,3.20
2019-01-26T03:45:17.123Z,3.57
2019-01-26T03:47:44.316Z,3.40
2019-01-26T03:50:11.861Z,3.23
2019-01-26T03:52:39.056Z,4.10
2019-01-26T03:55:07.449Z,3.10
2019-01-26T03:57:34.634Z,3.10
2019-01-26T04:00:01.872Z,3.53
2019-01-26T04:02:29.170Z,3.00
2019-01-26T04:04:56.407Z,2.90
2019-01-26T04:07:23.581Z,3.20
2019-01-26T04:09:50.797Z,3.30
2019-01-26T04:12:17.997Z,3.33
2019-01-26T04:14:45.225Z,2.60
2019-01-26T04:17:12.448Z,3.47
2019-01-26T04:19:39.778Z,3.13
2019-01-26T04:22:06.991Z,3.20
2019-01-26T04:24:34.186Z,3.30
2019-01-26T04:27:01.462Z,2.90
2019-01-26T04:29:28.657Z,3.00
2019-01-26T04:31:55.878Z,3.00
2019-01-26T04:34:23.076Z,3.10
2019-01-26T04:36:50.278Z,3.13
2019-01-26T04:39:17.549Z,2.97
2019-01-26T04:41:44.793Z,2.93
2019-01-26T04:44:11.997Z,3.50
2019-01-26T04:46:39.160Z,2.90
2019-01-26T04:49:06.390Z,2.67
2019-01-26T04:51:33.659Z,2.90
2019-01-26T04:54:00.924Z,3.00
2019-01-26T04:56:28.085Z,3.23
2019-01-26T04:58:55.336Z,3.00
2019-01-26T05:01:22.542Z,3.33
2019-01-26T05:03:49.723Z,2.70
2019-01-26T05:06:16.937Z,3.17
2019-01-26T05:08:44.246Z,2.80
2019-01-26T05:11:11.436Z,3.13
2019-01-26T05:13:38.639Z,2.53
2019-01-26T05:16:05.911Z,2.97
2019-01-26T05:18:33.128Z,2.87
2019-01-26T05:21:00.325Z,3.00
2019-01-26T05:23:27.562Z,2.53
2019-01-26T05:25:54.772Z,2.90
2019-01-26T05:28:21.951Z,2.57
2019-01-26T05:30:49.169Z,2.93
2019-01-26T05:33:16.358Z,2.60
2019-01-26T05:35:43.607Z,3.30
2019-01-26T05:38:10.802Z,2.07
2019-01-26T05:40:38.070Z,2.50
2019-01-26T05:43:05.295Z,2.60
2019-01-26T05:45:32.510Z,2.63
2019-01-26T05:47:59.719Z,2.77
2019-01-26T05:50:26.922Z,2.83
2019-01-26T05:52:54.200Z,2.90
2019-01-26T05:55:21.393Z,2.53
2019-01-26T05:57:48.631Z,2.57
2019-01-26T06:00:25.810Z,2.63
2019-01-26T06:02:53.026Z,2.97
2019-01-26T06:05:20.232Z,2.80
2019-01-26T06:07:47.407Z,2.57
2019-01-26T06:10:14.589Z,3.30
2019-01-26T06:12:41.803Z,2.23
2019-01-26T06:15:09.836Z,2.10
2019-01-26T06:17:37.072Z,2.93
2019-01-26T06:20:05.370Z,2.43
2019-01-26T06:22:32.575Z,2.30
2019-01-26T06:24:59.789Z,2.37
2019-01-26T06:27:26.959Z,2.70
2019-01-26T06:29:54.210Z,2.70
2019-01-26T06:32:21.390Z,2.50
2019-01-26T06:34:48.566Z,2.40
2019-01-26T06:37:15.778Z,2.40
2019-01-26T06:39:42.985Z,2.60
2019-01-26T06:42:10.169Z,1.90
2019-01-26T06:44:37.362Z,2.27
2019-01-26T06:47:04.729Z,2.73
2019-01-26T06:49:31.862Z,2.63
2019-01-26T06:51:59.044Z,2.33
2019-01-26T06:54:26.269Z,2.23
2019-01-26T06:56:53.453Z,2.33
2019-01-26T06:59:20.679Z,2.00
2019-01-26T07:01:47.886Z,2.50
2019-01-26T07:04:23.879Z,1.90
2019-01-26T07:07:09.695Z,2.20
2019-01-26T07:09:36.855Z,2.57
2019-01-26T07:12:04.098Z,2.10
2019-01-26T07:14:31.282Z,2.23
2019-01-26T07:16:58.750Z,2.80
2019-01-26T07:19:26.003Z,2.20
2019-01-26T07:21:53.241Z,2.30
2019-01-26T07:24:20.464Z,2.00
2019-01-26T07:26:47.803Z,2.47
2019-01-26T07:29:15.017Z,2.27
2019-01-26T07:31:42.227Z,2.53
2019-01-26T07:34:09.412Z,2.13
2019-01-26T07:36:36.594Z,2.20
2019-01-26T07:39:06.949Z,2.37
2019-01-26T07:41:34.121Z,2.27
2019-01-26T07:44:01.287Z,2.20
2019-01-26T07:46:28.482Z,2.60
2019-01-26T07:48:55.703Z,2.30
2019-01-26T07:51:22.881Z,2.07
2019-01-26T07:53:50.050Z,1.97
2019-01-26T07:56:17.279Z,2.00
2019-01-26T07:58:44.494Z,2.13
2019-01-26T08:01:11.667Z,2.53
2019-01-26T08:03:38.858Z,2.30
2019-01-26T08:06:06.029Z,1.93
2019-01-26T08:08:33.307Z,2.20
2019-01-26T08:11:00.465Z,1.93
2019-01-26T08:13:27.718Z,2.47
2019-01-26T08:15:54.954Z,2.23
2019-01-26T08:18:24.256Z,2.27
2019-01-26T08:20:51.286Z,2.17
2019-01-26T08:23:18.523Z,2.47
2019-01-26T08:25:45.705Z,1.97
2019-01-26T08:28:12.870Z,2.23
2019-01-26T08:30:40.088Z,1.70
2019-01-26T08:33:07.265Z,2.20
2019-01-26T08:35:34.472Z,1.97
2019-01-26T08:38:01.650Z,2.40
2019-01-26T08:40:28.851Z,2.27
2019-01-26T08:42:56.034Z,1.87
2019-01-26T08:45:23.207Z,2.47
2019-01-26T08:47:50.468Z,2.23
2019-01-26T08:50:22.336Z,2.10
2019-01-26T08:52:49.528Z,1.90
2019-01-26T08:55:18.240Z,2.10
2019-01-26T08:57:45.736Z,2.30
2019-01-26T09:00:20.869Z,1.97
2019-01-26T09:03:08.026Z,2.03
2019-01-26T09:05:42.686Z,2.00
2019-01-26T09:08:09.903Z,1.60
2019-01-26T09:10:37.090Z,1.90
2019-01-26T09:13:04.321Z,1.90
2019-01-26T09:15:31.555Z,2.23
2019-01-26T09:17:58.711Z,2.00
2019-01-26T09:20:25.938Z,2.10
2019-01-26T09:22:53.123Z,1.77
2019-01-26T09:25:20.354Z,2.00
2019-01-26T09:27:47.731Z,2.13
2019-01-26T09:30:15.118Z,1.90
2019-01-26T09:32:42.303Z,2.00
2019-01-26T09:35:09.530Z,1.90
2019-01-26T09:37:36.697Z,2.10
2019-01-26T09:40:05.059Z,2.30
2019-01-26T09:42:32.251Z,1.90
2019-01-26T09:44:59.535Z,1.70
2019-01-26T09:47:27.239Z,2.00
2019-01-26T09:49:54.423Z,1.80
2019-01-26T09:52:21.632Z,1.80
2019-01-26T09:54:48.835Z,1.70
2019-01-26T09:57:16.044Z,1.77
2019-01-26T09:59:43.231Z,1.83
2019-01-26T10:02:10.446Z,1.60
2019-01-26T10:04:37.594Z,1.80
2019-01-26T10:07:04.867Z,2.10
2019-01-26T10:09:32.026Z,1.60
2019-01-26T10:11:59.266Z,2.10
2019-01-26T10:14:26.482Z,1.60
2019-01-26T10:16:53.694Z,1.60
2019-01-26T10:19:20.928Z,2.10
2019-01-26T10:21:48.095Z,1.67
2019-01-26T10:24:15.325Z,1.77
2019-01-26T10:26:42.506Z,1.80
2019-01-26T10:29:09.666Z,1.83
2019-01-26T10:31:36.869Z,1.50
2019-01-26T10:34:04.129Z,1.67
2019-01-26T10:36:51.020Z,1.50
2019-01-26T10:39:18.689Z,1.70
2019-01-26T10:42:05.500Z,2.10
2019-01-26T10:44:33.772Z,1.63
2019-01-26T10:47:00.965Z,1.80
2019-01-26T10:49:28.238Z,1.63
2019-01-26T10:51:55.584Z,1.83
2019-01-26T10:54:22.773Z,1.43
2019-01-26T10:56:49.935Z,1.80
2019-01-26T10:59:17.313Z,1.93
2019-01-26T11:01:44.492Z,1.60
2019-01-26T11:04:11.701Z,1.93
2019-01-26T11:06:38.878Z,1.80
2019-01-26T11:09:09.247Z,1.70
2019-01-26T11:11:36.402Z,1.53
2019-01-26T11:14:03.603Z,1.60
2019-01-26T11:16:30.873Z,1.83
2019-01-26T11:18:58.064Z,1.53
2019-01-26T11:21:25.457Z,1.60
2019-01-26T11:23:52.673Z,1.67
2019-01-26T11:26:19.843Z,1.27
2019-01-26T11:28:47.099Z,1.80
2019-01-26T11:31:14.398Z,1.80
2019-01-26T11:33:41.609Z,1.60
2019-01-26T11:36:08.843Z,1.40
2019-01-26T11:38:36.063Z,1.90
2019-01-26T11:41:03.292Z,1.47
2019-01-26T11:43:30.500Z,1.83
2019-01-26T11:46:09.429Z,1.37
2019-01-26T11:48:40.127Z,1.80
2019-01-26T11:51:30.770Z,1.70
2019-01-26T11:53:57.946Z,1.80
2019-01-26T11:56:44.705Z,1.67
2019-01-26T11:59:12.034Z,1.50
2019-01-26T12:01:50.054Z,1.50
2019-01-26T12:04:35.645Z,1.43
2019-01-26T12:07:24.339Z,1.67
2019-01-26T12:09:51.531Z,2.00
2019-01-26T12:12:18.745Z,1.57
2019-01-26T12:14:45.958Z,1.63
2019-01-26T12:17:13.178Z,1.47
2019-01-26T12:19:40.433Z,1.80
2019-01-26T12:22:07.605Z,1.60
2019-01-26T12:24:34.763Z,1.80
2019-01-26T12:27:01.954Z,1.60
2019-01-26T12:29:29.157Z,2.07
2019-01-26T12:31:56.346Z,1.60
2019-01-26T12:34:23.519Z,1.37
2019-01-26T12:36:50.771Z,1.40
2019-01-26T12:39:17.971Z,1.57
2019-01-26T12:41:45.170Z,1.30
2019-01-26T12:44:12.298Z,1.50
2019-01-26T12:46:39.557Z,1.57
2019-01-26T12:49:06.714Z,1.70
2019-01-26T12:51:33.974Z,1.87
2019-01-26T12:54:01.166Z,1.40
2019-01-26T12:56:28.400Z,1.57
2019-01-26T12:58:55.560Z,1.60
2019-01-26T13:01:22.754Z,1.57
2019-01-26T13:03:49.923Z,1.83
2019-01-26T13:06:17.179Z,1.70
2019-01-26T13:08:44.388Z,1.50
2019-01-26T13:11:22.804Z,1.70
2019-01-26T13:13:50.043Z,1.63
2019-01-26T13:16:17.272Z,1.57
2019-01-26T13:18:44.490Z,1.50
2019-01-26T13:21:11.701Z,1.70
2019-01-26T13:23:38.875Z,1.43
2019-01-26T13:26:06.053Z,1.90
2019-01-26T13:28:33.287Z,1.83
2019-01-26T13:31:00.478Z,1.37
2019-01-26T13:33:27.681Z,1.43
2019-01-26T13:35:54.873Z,1.30
2019-01-26T13:38:22.103Z,1.70
2019-01-26T13:40:49.326Z,1.50
2019-01-26T13:43:17.433Z,1.43
2019-01-26T13:45:44.641Z,1.40
2019-01-26T13:48:11.828Z,1.70
2019-01-26T13:50:39.068Z,1.70
2019-01-26T13:53:06.267Z,1.53
2019-01-26T13:55:33.439Z,1.50
2019-01-26T13:58:00.702Z,1.40
2019-01-26T14:00:29.027Z,1.30
2019-01-26T14:02:56.194Z,1.40
2019-01-26T14:05:23.406Z,1.57
2019-01-26T14:07:50.570Z,1.47
2019-01-26T14:10:18.115Z,1.50
2019-01-26T14:12:45.347Z,1.30
2019-01-26T14:15:13.278Z,1.30
2019-01-26T14:17:40.483Z,1.50
2019-01-26T14:20:10.896Z,1.40
2019-01-26T14:22:38.101Z,1.30
2019-01-26T14:25:06.917Z,1.37
2019-01-26T14:27:34.556Z,1.63
2019-01-26T14:30:01.747Z,1.53
2019-01-26T14:32:28.925Z,1.30
2019-01-26T14:34:56.139Z,1.20
2019-01-26T14:37:23.323Z,1.47
2019-01-26T14:39:50.699Z,1.30
2019-01-26T14:42:17.865Z,1.40
2019-01-26T14:44:45.045Z,1.40
2019-01-26T14:47:12.349Z,1.50
2019-01-26T14:49:39.573Z,1.20
2019-01-26T14:52:06.803Z,1.23
2019-01-26T14:54:34.047Z,1.30
2019-01-26T14:57:01.242Z,1.40
2019-01-26T14:59:28.597Z,1.57
2019-01-26T15:01:55.795Z,1.40
2019-01-26T15:04:22.979Z,1.37
2019-01-26T15:06:50.236Z,1.40
2019-01-26T15:09:17.425Z,1.30
2019-01-26T15:11:44.652Z,1.37
2019-01-26T15:14:11.867Z,1.30
2019-01-26T15:16:39.021Z,1.10
2019-01-26T15:19:06.337Z,1.40
2019-01-26T15:21:33.511Z,1.20
2019-01-26T15:24:00.798Z,1.40
2019-01-26T15:26:27.998Z,1.43
2019-01-26T15:28:55.225Z,1.23
2019-01-26T15:31:22.458Z,1.10
2019-01-26T15:33:49.681Z,1.17
2019-01-26T15:36:16.921Z,1.20
2019-01-26T15:38:44.100Z,1.20
2019-01-26T15:41:11.537Z,1.40
2019-01-26T15:43:38.691Z,1.20
2019-01-26T15:46:05.853Z,1.43
2019-01-26T15:48:33.040Z,1.30
2019-01-26T15:51:00.225Z,1.37
2019-01-26T15:53:27.469Z,1.40
2019-01-26T15:55:54.678Z,1.50
2019-01-26T15:58:21.874Z,1.00
2019-01-26T16:00:49.094Z,1.20
2019-01-26T16:03:16.272Z,1.50
2019-01-26T16:05:43.490Z,1.40
2019-01-26T16:08:10.725Z,1.00
2019-01-26T16:10:37.866Z,1.20
2019-01-26T16:13:05.190Z,1.23
2019-01-26T16:15:32.408Z,1.10
2019-01-26T16:17:59.759Z,1.27
2019-01-26T16:20:26.970Z,1.23
2019-01-26T16:22:54.186Z,1.47
2019-01-26T16:25:21.427Z,1.23
2019-01-26T16:27:48.618Z,1.00
2019-01-26T16:30:24.030Z,1.10
2019-01-26T16:32:51.198Z,1.20
2019-01-26T16:35:18.424Z,1.30
2019-01-26T16:37:45.670Z,1.60
2019-01-26T16:40:15.596Z,1.30
2019-01-26T16:42:42.868Z,1.37
2019-01-26T16:45:13.382Z,1.30
2019-01-26T16:47:40.572Z,1.20
2019-01-26T16:50:11.463Z,1.40
2019-01-26T16:52:38.668Z,1.40
2019-01-26T16:55:07.088Z,1.23
2019-01-26T16:57:34.339Z,1.33
2019-01-26T17:00:01.539Z,1.10
2019-01-26T17:02:28.711Z,1.10
2019-01-26T17:04:55.948Z,1.07
2019-01-26T17:07:23.110Z,1.20
2019-01-26T17:09:50.438Z,1.20
2019-01-26T17:12:17.601Z,1.10
2019-01-26T17:14:44.752Z,1.30
2019-01-26T17:17:12.028Z,1.10
2019-01-26T17:19:39.274Z,1.10
2019-01-26T17:22:06.447Z,0.90
2019-01-26T17:24:33.643Z,1.03
2019-01-26T17:27:00.867Z,1.10
2019-01-26T17:29:28.160Z,1.23
2019-01-26T17:31:55.348Z,1.30
2019-01-26T17:34:23.238Z,1.00
2019-01-26T17:36:50.653Z,1.20
2019-01-26T17:39:17.978Z,1.20
2019-01-26T17:41:45.176Z,1.20
2019-01-26T17:44:12.430Z,1.10
2019-01-26T17:46:39.618Z,1.10
2019-01-26T17:49:06.836Z,1.30
2019-01-26T17:51:34.010Z,1.10
2019-01-26T17:54:01.202Z,1.30
2019-01-26T17:56:28.425Z,1.20
2019-01-26T17:58:55.681Z,1.20
2019-01-26T18:01:22.867Z,1.00
2019-01-26T18:03:50.084Z,1.13
2019-01-26T18:06:17.305Z,1.20
2019-01-26T18:08:44.490Z,1.43
2019-01-26T18:11:11.729Z,1.27
2019-01-26T18:13:38.925Z,1.20
2019-01-26T18:16:06.117Z,1.13
2019-01-26T18:18:33.410Z,1.27
2019-01-26T18:21:00.631Z,1.47
2019-01-26T18:23:29.804Z,1.30
2019-01-26T18:25:57.141Z,1.30
2019-01-26T18:28:24.340Z,1.23
2019-01-26T18:30:51.529Z,1.30
2019-01-26T18:33:18.791Z,1.30
2019-01-26T18:35:45.965Z,1.20
2019-01-26T18:38:13.173Z,1.10
2019-01-26T18:40:40.457Z,1.30
2019-01-26T18:43:07.678Z,1.10
2019-01-26T18:45:34.831Z,1.27
2019-01-26T18:48:02.052Z,1.43
2019-01-26T18:50:31.206Z,1.10
2019-01-26T18:52:58.566Z,1.10
2019-01-26T18:55:25.748Z,1.60
2019-01-26T18:57:52.918Z,1.10
2019-01-26T19:00:35.035Z,1.67
2019-01-26T19:03:22.731Z,1.40
2019-01-26T19:05:51.580Z,1.33
2019-01-26T19:08:18.785Z,1.10
2019-01-26T19:10:45.994Z,1.53
2019-01-26T19:13:13.146Z,1.10
2019-01-26T19:15:40.416Z,1.20
2019-01-26T19:18:07.624Z,1.17
2019-01-26T19:20:34.822Z,1.47
2019-01-26T19:23:02.046Z,1.10
2019-01-26T19:25:29.275Z,1.40
2019-01-26T19:27:56.458Z,1.30
2019-01-26T19:30:23.717Z,1.43
2019-01-26T19:32:50.903Z,1.20
2019-01-26T19:35:18.086Z,1.10
2019-01-26T19:37:45.346Z,1.20
2019-01-26T19:40:15.134Z,1.87
2019-01-26T19:42:42.328Z,1.13
2019-01-26T19:45:11.641Z,1.40
2019-01-26T19:47:39.018Z,1.30
2019-01-26T19:50:07.838Z,1.10
2019-01-26T19:52:35.059Z,1.30
2019-01-26T19:55:02.402Z,1.53
2019-01-26T19:57:29.582Z,1.30
2019-01-26T19:59:56.710Z,1.13
2019-01-26T20:02:23.926Z,1.37
2019-01-26T20:04:51.171Z,1.47
2019-01-26T20:07:18.378Z,1.40
2019-01-26T20:09:45.583Z,1.13
2019-01-26T20:12:12.932Z,1.00
2019-01-26T20:14:40.112Z,1.50
2019-01-26T20:17:07.384Z,1.20
2019-01-26T20:19:34.729Z,1.13
2019-01-26T20:22:01.945Z,1.27
2019-01-26T20:24:29.351Z,1.43
2019-01-26T20:26:56.510Z,1.50
2019-01-26T20:29:23.708Z,1.37
2019-01-26T20:31:50.910Z,1.23
2019-01-26T20:34:18.140Z,1.33
2019-01-26T20:36:45.333Z,1.20
2019-01-26T20:39:12.764Z,1.33
2019-01-26T20:41:39.943Z,1.17
2019-01-26T20:44:07.191Z,1.20
2019-01-26T20:46:34.477Z,1.10
2019-01-26T20:49:01.657Z,1.20
2019-01-26T20:51:28.857Z,1.20
2019-01-26T20:53:56.089Z,1.27
2019-01-26T20:56:23.268Z,1.47
2019-01-26T20:58:50.504Z,1.30
2019-01-26T21:01:17.819Z,1.13
2019-01-26T21:03:45.005Z,1.53
2019-01-26T21:06:12.182Z,1.30
2019-01-26T21:08:39.397Z,1.40
2019-01-26T21:11:06.675Z,1.13
2019-01-26T21:13:33.903Z,1.17
2019-01-26T21:16:01.122Z,1.20
2019-01-26T21:18:28.299Z,1.10
2019-01-26T21:20:55.641Z,1.20
2019-01-26T21:23:22.849Z,1.30
2019-01-26T21:25:50.184Z,1.30
2019-01-26T21:28:17.383Z,1.20
2019-01-26T21:30:44.574Z,1.10
2019-01-26T21:33:11.818Z,1.00
2019-01-26T21:35:39.008Z,1.20
2019-01-26T21:38:06.198Z,1.20
2019-01-26T21:40:33.470Z,1.33
2019-01-26T21:43:01.005Z,1.20
2019-01-26T21:45:28.209Z,1.10
2019-01-26T21:47:55.400Z,1.30
2019-01-26T21:50:24.835Z,1.17
2019-01-26T21:52:52.016Z,1.00
2019-01-26T21:55:19.215Z,1.23
2019-01-26T21:57:46.426Z,1.10
2019-01-26T22:00:16.287Z,1.17
2019-01-26T22:02:43.468Z,1.30
2019-01-26T22:05:10.863Z,1.10
2019-01-26T22:07:38.063Z,1.10
2019-01-26T22:10:06.756Z,1.27
2019-01-26T22:12:34.044Z,1.10
2019-01-26T22:15:01.259Z,1.60
2019-01-26T22:17:28.422Z,1.60
2019-01-26T22:19:55.655Z,1.00
2019-01-26T22:22:22.826Z,1.30
2019-01-26T22:24:49.991Z,1.20
2019-01-26T22:27:17.534Z,1.33
2019-01-26T22:29:44.743Z,1.30
2019-01-26T22:32:11.989Z,1.20
2019-01-26T22:34:39.177Z,1.43
2019-01-26T22:37:06.381Z,1.20
2019-01-26T22:39:33.599Z,1.10
2019-01-26T22:42:00.809Z,1.20
2019-01-26T22:44:28.059Z,1.20
2019-01-26T22:46:55.281Z,1.10
2019-01-26T22:49:22.499Z,0.97
2019-01-26T22:51:53.425Z,1.03
2019-01-26T22:54:18.961Z,1.07
2019-01-26T22:56:46.162Z,1.33
2019-01-26T22:59:13.345Z,1.33
2019-01-26T23:01:41.570Z,1.40
2019-01-26T23:04:53.476Z,1.10
2019-01-26T23:07:45.882Z,1.20
2019-01-26T23:10:59.763Z,1.33
2019-01-26T23:13:58.140Z,1.20
2019-01-26T23:17:00.195Z,1.17
2019-01-26T23:19:50.581Z,1.40
2019-01-26T23:22:44.295Z,1.10
2019-01-26T23:25:56.413Z,1.10
2019-01-26T23:29:08.165Z,1.10
2019-01-26T23:31:35.394Z,1.10
2019-01-26T23:34:02.561Z,1.00
2019-01-26T23:36:29.780Z,1.10
2019-01-26T23:39:02.112Z,1.30
2019-01-26T23:41:26.141Z,1.07
2019-01-26T23:43:53.398Z,1.30
2019-01-26T23:46:20.641Z,1.10
2019-01-26T23:48:47.808Z,1.17
2019-01-26T23:51:15.053Z,1.13
2019-01-26T23:53:42.195Z,1.37
2019-01-26T23:56:09.461Z,1.40
2019-01-26T23:58:36.643Z,1.20
